Main page
METAR-TAF:

METAR-TAF

Airports :

Cologne Bonn Airport

Cologne, Germany

latitude: 50-52N, longitude: 007-10E, elevation: 91 m

Current weather observation

The report was made 30 minutes ago, at 16:20 UTC
Wind 9 kt from the Southeast, varying between East and South/Southeast
Temperature 14°C
Humidity 82%
Pressure 1012 hPa
Visibility 10 km or more
Broken clouds at a height of 1400 ft

METAR: EDDK 231620Z 13009KT 090V150 9999 BKN014 14/11 Q1012 NOSIG

Time: 18:50 (16:50 UTC)

Forecast

The report was made 1 hour and 30 minutes ago, at 15:20 UTC
Forecast valid from 23 at 15 UTC to 24 at 18 UTC
Wind 10 kt from the Southeast
Visibility 10 km or more
Broken clouds at a height of 1400 ft
Becoming
from 23 at 16 UTC to 23 at 19 UTC
Wind 4 kt from the Southeast
Scattered clouds at a height of 2000 ft
Becoming
from 24 at 08 UTC to 24 at 11 UTC
Wind 9 kt from the South

TAF: EDDK 231520Z 2315/2418 14010KT 9999 BKN014 BECMG 2316/2319 13004KT SCT020 BECMG 2408/2411 17009KT

Weather observations and forecasts of more than 4000 airports (METAR and TAF reports).

The available stations are represented by yellow and red dots on the map.

Hover mouse over dot to see the name of the station.

Then click to see weather observations and forecasts.

To change the map : click on the green buttons with a black cross to zoom in, on the green button with a dash to zoom out, or on the green arrows for adjacent maps.


METAR-TAF: